Main page
METAR-TAF:

METAR-TAF

Airports :

Santa Cruz Air Force Base

Santa Cruz, Rio de Janeiro, Brazil

latitude: 22-56S, longitude: 043-43W, elevation: 3 m

Current weather observation

The report was made 1 hour and 17 minutes ago, at 09:00 UTC
Wind 9 kt from the North/Northeast
Temperature 22°C
Humidity 88%
Pressure 1012 hPa
Visibility 10 km or more
Few clouds at a height of 2500 ft
Broken clouds at a height of 10000 ft

METAR: SBSC 140900Z 03009KT 9999 FEW025 BKN100 22/20 Q1012

Time: 08:17 (10:17 UTC)

Forecast

The report was made 7 hours and 17 minutes ago, at 03:00 UTC
Forecast valid from 14 at 06 UTC to 14 at 18 UTC
Wind 7 kt from the North/Northeast
Visibility 10 km or more
Few clouds at a height of 2500 ft
Probability 40% :
Temporary
from 14 at 16 UTC to 14 at 18 UTC
Broken clouds at a height of 2000 ft
Few clouds at a height of 3500 ft, Cumulonimbus.
thunderstorm in vicinity

TAF: SBSC 140300Z 1406/1418 03007KT 9999 FEW025 TN21/1408Z TX28/1417Z PROB40 TEMPO 1416/1418 VCTS BKN020 FEW035CB RMK PDJ

Weather observations and forecasts of more than 4000 airports (METAR and TAF reports).

The available stations are represented by yellow and red dots on the map.

Hover mouse over dot to see the name of the station.

Then click to see weather observations and forecasts.

To change the map : click on the green buttons with a black cross to zoom in, on the green button with a dash to zoom out, or on the green arrows for adjacent maps.


METAR-TAF: